createdAt,value
2023-01-27T00:00:51.650Z,0.13
2023-01-27T00:03:25.955Z,0.14
2023-01-27T00:05:52.873Z,0.14
2023-01-27T00:08:20.086Z,0.14
2023-01-27T00:10:47.292Z,0.15
2023-01-27T00:13:27.120Z,0.11
2023-01-27T00:15:54.222Z,0.11
2023-01-27T00:18:23.390Z,0.06
2023-01-27T00:21:08.974Z,0.09
2023-01-27T00:23:55.234Z,0.09
2023-01-27T00:26:22.567Z,0.06
2023-01-27T00:28:49.897Z,0.04
2023-01-27T00:31:37.903Z,0.06
2023-01-27T00:34:11.187Z,0.06
2023-01-27T00:36:40.258Z,0.07
2023-01-27T00:39:08.336Z,0.03
2023-01-27T00:41:35.340Z,0.02
2023-01-27T00:44:03.109Z,0.02
2023-01-27T00:46:30.089Z,0.02
2023-01-27T00:48:57.705Z,0.00
2023-01-27T00:51:25.134Z,0.05
2023-01-27T00:53:57.255Z,0.06
2023-01-27T00:56:24.463Z,0.10
2023-01-27T00:58:51.670Z,0.08
2023-01-27T01:01:18.671Z,0.08
2023-01-27T01:03:46.708Z,0.06
2023-01-27T01:06:16.259Z,0.05
2023-01-27T01:08:43.825Z,0.05
2023-01-27T01:11:13.452Z,0.07
2023-01-27T01:13:41.613Z,0.07
2023-01-27T01:16:14.096Z,0.07
2023-01-27T01:18:41.866Z,0.04
2023-01-27T01:21:11.581Z,0.04
2023-01-27T01:23:40.679Z,0.06
2023-01-27T01:26:10.183Z,0.07
2023-01-27T01:28:38.736Z,0.05
2023-01-27T01:31:07.795Z,0.05
2023-01-27T01:33:35.651Z,0.06
2023-01-27T01:36:08.835Z,0.05
2023-01-27T01:38:36.661Z,0.07
2023-01-27T01:41:04.471Z,0.03
2023-01-27T01:43:31.686Z,0.06
2023-01-27T01:45:59.623Z,0.05
2023-01-27T01:48:43.217Z,0.06
2023-01-27T01:51:15.162Z,0.00
2023-01-27T01:54:02.597Z,0.05
2023-01-27T01:56:34.284Z,0.06
2023-01-27T01:59:04.421Z,0.07
2023-01-27T02:01:31.641Z,0.06
2023-01-27T02:04:01.011Z,0.02
2023-01-27T02:06:28.540Z,0.06
2023-01-27T02:08:57.894Z,0.06
2023-01-27T02:11:25.049Z,0.06
2023-01-27T02:13:52.769Z,0.04
2023-01-27T02:16:19.684Z,-0.02
2023-01-27T02:18:46.877Z,-0.01
2023-01-27T02:21:13.877Z,-0.02
2023-01-27T02:23:41.287Z,-0.01
2023-01-27T02:26:30.573Z,0.00
2023-01-27T02:29:08.484Z,-0.01
2023-01-27T02:31:36.250Z,0.03
2023-01-27T02:34:06.366Z,0.02
2023-01-27T02:36:36.213Z,0.03
2023-01-27T02:39:04.436Z,-0.03
2023-01-27T02:41:31.294Z,-0.05
2023-01-27T02:43:58.610Z,-0.01
2023-01-27T02:46:25.540Z,-0.01
2023-01-27T02:48:52.868Z,-0.02
2023-01-27T02:51:20.333Z,-0.03
2023-01-27T02:53:50.607Z,0.00
2023-01-27T02:56:17.458Z,-0.05
2023-01-27T02:58:44.705Z,0.00
2023-01-27T03:01:18.075Z,-0.03
2023-01-27T03:03:47.547Z,-0.03
2023-01-27T03:06:19.130Z,-0.06
2023-01-27T03:08:47.099Z,-0.07
2023-01-27T03:11:35.787Z,-0.06
2023-01-27T03:14:04.895Z,-0.05
2023-01-27T03:16:50.259Z,-0.05
2023-01-27T03:19:17.928Z,-0.06
2023-01-27T03:21:45.348Z,-0.06
2023-01-27T03:24:12.983Z,-0.04
2023-01-27T03:26:40.605Z,-0.03
2023-01-27T03:29:28.201Z,-0.06
2023-01-27T03:31:56.121Z,-0.03
2023-01-27T03:34:23.489Z,-0.01
2023-01-27T03:37:13.459Z,-0.04
2023-01-27T03:40:01.910Z,-0.03
2023-01-27T03:42:48.707Z,-0.09
2023-01-27T03:45:34.548Z,-0.09
2023-01-27T03:48:01.393Z,-0.06
2023-01-27T03:50:38.074Z,-0.09
2023-01-27T03:53:05.574Z,-0.10
2023-01-27T03:55:35.199Z,-0.09
2023-01-27T03:58:18.414Z,-0.11
2023-01-27T04:00:46.441Z,-0.07
2023-01-27T04:03:32.962Z,-0.05
2023-01-27T04:06:21.770Z,-0.05
2023-01-27T04:08:48.648Z,-0.08
2023-01-27T04:11:37.581Z,-0.07
2023-01-27T04:14:05.925Z,-0.10
2023-01-27T04:16:34.584Z,-0.12
2023-01-27T04:19:01.512Z,-0.11
2023-01-27T04:21:29.084Z,-0.12
2023-01-27T04:23:56.248Z,-0.13
2023-01-27T04:26:23.623Z,-0.10
2023-01-27T04:28:50.760Z,-0.09
2023-01-27T04:31:18.597Z,-0.11
2023-01-27T04:33:45.484Z,-0.11
2023-01-27T04:36:16.411Z,-0.10
2023-01-27T04:38:43.287Z,-0.14
2023-01-27T04:41:10.548Z,-0.12
2023-01-27T04:43:37.440Z,-0.15
2023-01-27T04:46:04.811Z,-0.18
2023-01-27T04:48:31.783Z,-0.17
2023-01-27T04:50:58.969Z,-0.13
2023-01-27T04:53:25.773Z,-0.15
2023-01-27T04:55:52.958Z,-0.14
2023-01-27T04:58:19.906Z,-0.12
2023-01-27T05:00:47.273Z,-0.13
2023-01-27T05:03:14.317Z,-0.12
2023-01-27T05:05:41.519Z,-0.15
2023-01-27T05:08:10.060Z,-0.14
2023-01-27T05:10:37.231Z,-0.14
2023-01-27T05:13:04.151Z,-0.16
2023-01-27T05:15:33.805Z,-0.16
2023-01-27T05:18:00.717Z,-0.13
2023-01-27T05:20:27.927Z,-0.15
2023-01-27T05:23:14.718Z,-0.17
2023-01-27T05:25:43.186Z,-0.18
2023-01-27T05:28:10.353Z,-0.18
2023-01-27T05:30:40.085Z,-0.16
2023-01-27T05:33:08.501Z,-0.17
2023-01-27T05:35:35.767Z,-0.18
2023-01-27T05:38:02.727Z,-0.16
2023-01-27T05:40:30.147Z,-0.09
2023-01-27T05:42:57.119Z,-0.10
2023-01-27T05:45:24.355Z,-0.13
2023-01-27T05:47:51.964Z,-0.13
2023-01-27T05:50:19.304Z,-0.11
2023-01-27T05:52:48.834Z,-0.13
2023-01-27T05:55:16.325Z,-0.12
2023-01-27T05:57:43.173Z,-0.09
2023-01-27T06:00:10.751Z,-0.13
2023-01-27T06:02:37.736Z,-0.11
2023-01-27T06:05:05.314Z,-0.13
2023-01-27T06:07:32.180Z,-0.10
2023-01-27T06:09:59.357Z,-0.11
2023-01-27T06:12:26.281Z,-0.13
2023-01-27T06:14:55.484Z,-0.16
2023-01-27T06:17:22.466Z,-0.17
2023-01-27T06:19:49.625Z,-0.15
2023-01-27T06:22:16.474Z,-0.16
2023-01-27T06:24:43.687Z,-0.18
2023-01-27T06:27:13.621Z,-0.20
2023-01-27T06:29:40.874Z,-0.15
2023-01-27T06:32:07.883Z,-0.15
2023-01-27T06:34:35.151Z,-0.20
2023-01-27T06:37:04.638Z,-0.18
2023-01-27T06:39:34.404Z,-0.17
2023-01-27T06:42:01.356Z,-0.20
2023-01-27T06:44:30.865Z,-0.16
2023-01-27T06:46:58.052Z,-0.14
2023-01-27T06:49:25.821Z,-0.15
2023-01-27T06:51:52.673Z,-0.14
2023-01-27T06:54:20.143Z,-0.17
2023-01-27T06:56:46.990Z,-0.15
2023-01-27T06:59:14.310Z,-0.13
2023-01-27T07:01:42.233Z,-0.19
2023-01-27T07:04:10.652Z,-0.18
2023-01-27T07:06:37.931Z,-0.17
2023-01-27T07:09:05.158Z,-0.19
2023-01-27T07:11:32.043Z,-0.13
2023-01-27T07:13:59.183Z,-0.11
2023-01-27T07:16:26.076Z,-0.11
2023-01-27T07:18:55.942Z,-0.09
2023-01-27T07:21:22.812Z,-0.10
2023-01-27T07:23:50.055Z,-0.10
2023-01-27T07:26:24.950Z,-0.08
2023-01-27T07:28:52.846Z,-0.08
2023-01-27T07:31:19.801Z,-0.09
2023-01-27T07:33:47.196Z,-0.06
2023-01-27T07:36:14.147Z,-0.05
2023-01-27T07:38:41.430Z,-0.02
2023-01-27T07:41:09.476Z,-0.03
2023-01-27T07:43:36.936Z,-0.03
2023-01-27T07:46:07.939Z,-0.02
2023-01-27T07:48:35.334Z,0.03
2023-01-27T07:51:02.185Z,0.04
2023-01-27T07:53:36.842Z,0.07
2023-01-27T07:56:04.387Z,0.11
2023-01-27T07:58:31.349Z,0.14
2023-01-27T08:00:58.703Z,0.21
2023-01-27T08:03:25.972Z,0.24
2023-01-27T08:05:55.673Z,0.29
2023-01-27T08:08:22.695Z,0.36
2023-01-27T08:10:51.536Z,0.36
2023-01-27T08:13:18.524Z,0.46
2023-01-27T08:15:45.836Z,0.50
2023-01-27T08:21:18.227Z,0.58
2023-01-27T08:23:48.357Z,0.61
2023-01-27T08:26:16.072Z,0.62
2023-01-27T08:28:43.023Z,0.60
2023-01-27T08:31:11.674Z,0.60
2023-01-27T08:33:41.544Z,0.56
2023-01-27T08:36:12.827Z,0.53
2023-01-27T08:38:40.366Z,0.55
2023-01-27T08:41:09.061Z,0.54
2023-01-27T08:43:36.392Z,0.59
2023-01-27T08:46:04.400Z,0.58
2023-01-27T08:48:31.894Z,0.59
2023-01-27T08:51:00.011Z,0.62
2023-01-27T08:53:27.633Z,0.67
2023-01-27T08:56:02.007Z,0.67
2023-01-27T08:58:28.880Z,0.67
2023-01-27T09:01:01.490Z,0.60
2023-01-27T09:03:29.139Z,0.59
2023-01-27T09:05:56.565Z,0.58
2023-01-27T09:08:23.672Z,0.57
2023-01-27T09:10:51.073Z,0.58
2023-01-27T09:13:22.496Z,0.59
2023-01-27T09:15:53.293Z,0.62
2023-01-27T09:18:20.520Z,0.64
2023-01-27T09:20:47.803Z,0.73
2023-01-27T09:23:14.935Z,0.71
2023-01-27T09:25:44.863Z,0.66
2023-01-27T09:28:17.188Z,0.66
2023-01-27T09:30:48.234Z,0.68
2023-01-27T09:33:15.685Z,0.72
2023-01-27T09:35:48.541Z,0.77
2023-01-27T09:38:18.218Z,0.73
2023-01-27T09:40:45.397Z,0.68
2023-01-27T09:43:12.600Z,0.60
2023-01-27T09:45:39.919Z,0.57
2023-01-27T09:48:25.741Z,0.61
2023-01-27T09:50:58.108Z,0.61
2023-01-27T09:53:43.516Z,0.62
2023-01-27T09:56:15.575Z,0.62
2023-01-27T09:58:48.786Z,0.63
2023-01-27T10:01:28.066Z,0.64
2023-01-27T10:03:58.069Z,0.64
2023-01-27T10:06:30.476Z,0.62
2023-01-27T10:09:12.685Z,0.61
2023-01-27T10:11:40.377Z,0.66
2023-01-27T10:14:13.540Z,0.68
2023-01-27T10:17:00.002Z,0.75
2023-01-27T10:19:42.773Z,0.74
2023-01-27T10:22:37.935Z,0.70
2023-01-27T10:25:08.058Z,0.78
2023-01-27T10:27:41.146Z,0.68
2023-01-27T10:30:19.298Z,0.64
2023-01-27T10:33:01.397Z,0.62
2023-01-27T10:35:30.631Z,0.56
2023-01-27T10:38:20.894Z,0.56
2023-01-27T10:40:57.061Z,0.54
2023-01-27T10:43:34.173Z,0.55
2023-01-27T10:46:16.392Z,0.53
2023-01-27T10:48:51.512Z,0.55
2023-01-27T10:51:37.601Z,0.52
2023-01-27T10:54:19.983Z,0.50
2023-01-27T10:56:59.726Z,0.50
2023-01-27T10:59:31.443Z,0.48
2023-01-27T11:02:24.553Z,0.49
2023-01-27T11:04:54.642Z,0.49
2023-01-27T11:07:22.248Z,0.50
2023-01-27T11:10:10.482Z,0.50
2023-01-27T11:12:40.456Z,0.53
2023-01-27T11:15:20.040Z,0.56
2023-01-27T11:17:50.344Z,0.61
2023-01-27T11:20:32.195Z,0.56
2023-01-27T11:22:59.498Z,0.52
2023-01-27T11:25:34.623Z,0.43
2023-01-27T11:28:06.804Z,0.35
2023-01-27T11:30:39.349Z,0.39
2023-01-27T11:33:13.710Z,0.38
2023-01-27T11:35:43.314Z,0.43
2023-01-27T11:38:17.188Z,0.45
2023-01-27T11:40:45.891Z,0.47
2023-01-27T11:43:16.417Z,0.53
2023-01-27T11:45:45.491Z,0.54
2023-01-27T11:48:17.895Z,0.56
2023-01-27T11:50:45.359Z,0.54
2023-01-27T11:53:23.206Z,0.43
2023-01-27T11:56:00.752Z,0.45
2023-01-27T11:58:34.672Z,0.44
2023-01-27T12:01:04.495Z,0.51
2023-01-27T12:03:34.442Z,0.52
2023-01-27T12:06:05.747Z,0.56
2023-01-27T12:08:40.737Z,0.61
2023-01-27T12:11:22.914Z,0.71
2023-01-27T12:13:51.594Z,0.80
2023-01-27T12:16:19.760Z,0.90
2023-01-27T12:18:53.673Z,1.01
2023-01-27T12:21:22.720Z,1.06
2023-01-27T12:23:49.592Z,1.21
2023-01-27T12:26:28.022Z,1.25
2023-01-27T12:28:55.208Z,1.22
2023-01-27T12:31:22.778Z,1.26
2023-01-27T12:33:58.478Z,1.29
2023-01-27T12:36:25.748Z,1.27
2023-01-27T12:38:54.271Z,1.30
2023-01-27T12:41:25.925Z,1.36
2023-01-27T12:44:00.351Z,1.28
2023-01-27T12:46:28.766Z,1.27
2023-01-27T12:49:09.623Z,1.32
2023-01-27T12:52:04.256Z,1.28
2023-01-27T12:54:32.629Z,1.26
2023-01-27T12:57:07.597Z,1.18
2023-01-27T12:59:35.920Z,1.26
2023-01-27T13:02:03.250Z,1.21
2023-01-27T13:04:30.843Z,1.22
2023-01-27T13:07:04.230Z,1.17
2023-01-27T13:09:50.055Z,1.14
2023-01-27T13:12:20.641Z,1.06
2023-01-27T13:14:57.880Z,1.00
2023-01-27T13:17:48.241Z,0.94
2023-01-27T13:20:18.363Z,0.84
2023-01-27T13:22:48.064Z,0.83
2023-01-27T13:25:19.614Z,0.71
2023-01-27T13:27:51.067Z,0.69
2023-01-27T13:30:36.944Z,0.66
2023-01-27T13:33:21.172Z,0.63
2023-01-27T13:35:56.139Z,0.66
2023-01-27T13:38:29.254Z,0.63
2023-01-27T13:40:59.002Z,0.56
2023-01-27T13:43:30.547Z,0.54
2023-01-27T13:46:01.508Z,0.49
2023-01-27T13:48:40.788Z,0.48
2023-01-27T13:51:17.969Z,0.49
2023-01-27T13:53:47.764Z,0.51
2023-01-27T13:56:17.768Z,0.50
2023-01-27T13:58:57.321Z,0.51
2023-01-27T14:01:24.278Z,0.51
2023-01-27T14:04:10.375Z,0.51
2023-01-27T14:06:40.337Z,0.55
2023-01-27T14:09:08.816Z,0.53
2023-01-27T14:11:43.119Z,0.57
2023-01-27T14:14:16.589Z,0.55
2023-01-27T14:17:02.141Z,0.53
2023-01-27T14:19:32.332Z,0.58
2023-01-27T14:22:14.585Z,0.52
2023-01-27T14:24:59.999Z,0.51
2023-01-27T14:27:35.101Z,0.53
2023-01-27T14:30:02.343Z,0.51
2023-01-27T14:32:44.630Z,0.52
2023-01-27T14:35:21.020Z,0.52
2023-01-27T14:38:06.772Z,0.50
2023-01-27T14:40:50.115Z,0.48
2023-01-27T14:43:21.863Z,0.45
2023-01-27T14:45:53.867Z,0.45
2023-01-27T14:48:48.420Z,0.44
2023-01-27T14:51:42.801Z,0.42
2023-01-27T14:54:28.426Z,0.38
2023-01-27T14:57:13.482Z,0.37
2023-01-27T14:59:47.733Z,0.40
2023-01-27T15:02:18.934Z,0.35
2023-01-27T15:04:49.010Z,0.35
2023-01-27T15:07:36.970Z,0.25
2023-01-27T15:10:09.503Z,0.17
2023-01-27T15:12:39.143Z,0.09
2023-01-27T15:15:24.848Z,0.06
2023-01-27T15:17:55.231Z,0.00
2023-01-27T15:20:22.203Z,-0.08
2023-01-27T15:23:07.715Z,-0.16
2023-01-27T15:25:39.676Z,-0.24
2023-01-27T15:28:12.014Z,-0.36
2023-01-27T15:30:40.994Z,-0.38
2023-01-27T15:33:26.643Z,-0.42
2023-01-27T15:36:13.738Z,-0.40
2023-01-27T15:38:58.050Z,-0.45
2023-01-27T15:41:25.176Z,-0.49
2023-01-27T15:44:11.081Z,-0.43
2023-01-27T15:46:42.092Z,-0.42
2023-01-27T15:49:15.764Z,-0.47
2023-01-27T15:51:42.683Z,-0.51
2023-01-27T15:54:16.390Z,-0.52
2023-01-27T15:56:43.306Z,-0.55
2023-01-27T15:59:15.533Z,-0.62
2023-01-27T16:01:42.933Z,-0.72
2023-01-27T16:04:10.089Z,-0.69
2023-01-27T16:06:44.689Z,-0.81
2023-01-27T16:09:20.560Z,-0.86
2023-01-27T16:11:58.136Z,-0.96
2023-01-27T16:14:33.013Z,-1.00
2023-01-27T16:17:10.061Z,-0.98
2023-01-27T16:19:41.139Z,-1.03
2023-01-27T16:22:19.723Z,-1.03
2023-01-27T16:25:05.826Z,-1.12
2023-01-27T16:27:38.964Z,-1.16
2023-01-27T16:30:11.490Z,-1.16
2023-01-27T16:32:40.899Z,-1.14
2023-01-27T16:35:16.215Z,-1.12
2023-01-27T16:37:59.991Z,-1.13
2023-01-27T16:40:27.975Z,-1.13
2023-01-27T16:42:59.757Z,-1.12
2023-01-27T16:45:28.608Z,-1.09
2023-01-27T16:47:58.570Z,-1.07
2023-01-27T16:50:36.545Z,-1.05
2023-01-27T16:53:19.811Z,-1.03
2023-01-27T16:55:57.537Z,-1.03
2023-01-27T16:58:32.434Z,-1.01
2023-01-27T17:01:05.890Z,-0.97
2023-01-27T17:03:38.855Z,-1.04
2023-01-27T17:06:08.704Z,-1.00
2023-01-27T17:08:43.393Z,-1.04
2023-01-27T17:11:23.102Z,-1.04
2023-01-27T17:13:56.789Z,-1.04
2023-01-27T17:16:24.556Z,-1.04
2023-01-27T17:18:53.209Z,-1.03
2023-01-27T17:21:33.773Z,-1.03
2023-01-27T17:24:06.638Z,-1.07
2023-01-27T17:26:34.807Z,-1.07
2023-01-27T17:29:04.462Z,-1.10
2023-01-27T17:31:37.003Z,-1.12
2023-01-27T17:34:04.571Z,-1.13
2023-01-27T17:36:32.020Z,-1.10
2023-01-27T17:39:22.457Z,-1.12
2023-01-27T17:41:55.568Z,-1.14
2023-01-27T17:44:25.952Z,-1.16
2023-01-27T17:46:54.454Z,-1.20
2023-01-27T17:49:21.825Z,-1.17
2023-01-27T17:51:55.878Z,-1.15
2023-01-27T17:54:22.798Z,-1.18
2023-01-27T17:56:52.125Z,-1.22
2023-01-27T17:59:20.416Z,-1.29
2023-01-27T18:01:49.457Z,-1.34
2023-01-27T18:04:17.658Z,-1.34
2023-01-27T18:06:48.908Z,-1.34
2023-01-27T18:09:17.739Z,-1.40
2023-01-27T18:11:56.201Z,-1.44
2023-01-27T18:14:23.508Z,-1.48
2023-01-27T18:17:05.023Z,-1.49
2023-01-27T18:19:35.617Z,-1.48
2023-01-27T18:22:13.573Z,-1.51
2023-01-27T18:24:47.836Z,-1.50
2023-01-27T18:27:33.806Z,-1.53
2023-01-27T18:30:16.169Z,-1.56
2023-01-27T18:32:44.996Z,-1.58
2023-01-27T18:35:38.634Z,-1.60
2023-01-27T18:38:23.814Z,-1.64
2023-01-27T18:40:51.728Z,-1.62
2023-01-27T18:43:21.751Z,-1.63
2023-01-27T18:45:50.935Z,-1.63
2023-01-27T18:48:18.873Z,-1.61
2023-01-27T18:50:47.453Z,-1.60
2023-01-27T18:53:19.285Z,-1.56
2023-01-27T18:55:46.984Z,-1.53
2023-01-27T18:58:18.534Z,-1.53
2023-01-27T19:00:48.925Z,-1.52
2023-01-27T19:03:19.844Z,-1.52
2023-01-27T19:05:47.491Z,-1.53
2023-01-27T19:08:17.543Z,-1.53
2023-01-27T19:10:46.856Z,-1.52
2023-01-27T19:13:15.123Z,-1.53
2023-01-27T19:15:49.893Z,-1.52
2023-01-27T19:18:24.903Z,-1.48
2023-01-27T19:20:52.712Z,-1.45
2023-01-27T19:23:21.241Z,-1.45
2023-01-27T19:25:50.850Z,-1.49
2023-01-27T19:28:23.517Z,-1.48
2023-01-27T19:30:50.986Z,-1.45
2023-01-27T19:33:21.862Z,-1.45
2023-01-27T19:35:51.440Z,-1.46
2023-01-27T19:38:18.918Z,-1.42
2023-01-27T19:40:46.633Z,-1.39
2023-01-27T19:43:14.964Z,-1.38
2023-01-27T19:45:43.483Z,-1.39
2023-01-27T19:48:13.969Z,-1.37
2023-01-27T19:50:47.644Z,-1.37
2023-01-27T19:53:16.558Z,-1.37
2023-01-27T19:55:44.883Z,-1.36
2023-01-27T19:58:21.904Z,-1.36
2023-01-27T20:00:49.931Z,-1.35
2023-01-27T20:03:20.914Z,-1.35
2023-01-27T20:05:49.785Z,-1.33
2023-01-27T20:08:20.871Z,-1.35
2023-01-27T20:10:48.859Z,-1.32
2023-01-27T20:13:20.812Z,-1.33
2023-01-27T20:15:48.422Z,-1.34
2023-01-27T20:18:17.922Z,-1.34
2023-01-27T20:20:46.364Z,-1.34
2023-01-27T20:23:14.930Z,-1.32
2023-01-27T20:25:42.947Z,-1.34
2023-01-27T20:28:12.980Z,-1.34
2023-01-27T20:30:43.187Z,-1.35
2023-01-27T20:33:11.865Z,-1.35
2023-01-27T20:35:39.139Z,-1.33
2023-01-27T20:38:07.097Z,-1.35
2023-01-27T20:40:35.442Z,-1.38
2023-01-27T20:43:03.728Z,-1.35
2023-01-27T20:45:32.855Z,-1.35
2023-01-27T20:48:00.885Z,-1.34
2023-01-27T20:50:35.083Z,-1.32
2023-01-27T20:53:05.155Z,-1.34
2023-01-27T20:55:32.750Z,-1.31
2023-01-27T20:58:02.325Z,-1.35
2023-01-27T21:00:29.446Z,-1.36
2023-01-27T21:02:59.053Z,-1.33
2023-01-27T21:05:30.358Z,-1.31
2023-01-27T21:08:01.807Z,-1.31
2023-01-27T21:10:29.849Z,-1.31
2023-01-27T21:12:57.547Z,-1.30
2023-01-27T21:15:25.239Z,-1.32
2023-01-27T21:17:53.624Z,-1.33
2023-01-27T21:20:24.279Z,-1.32
2023-01-27T21:22:52.133Z,-1.32
2023-01-27T21:25:19.937Z,-1.33
2023-01-27T21:27:48.635Z,-1.34
2023-01-27T21:30:19.258Z,-1.32
2023-01-27T21:32:46.992Z,-1.29
2023-01-27T21:35:14.134Z,-1.33
2023-01-27T21:37:42.827Z,-1.29
2023-01-27T21:40:10.595Z,-1.29
2023-01-27T21:42:56.600Z,-1.31
2023-01-27T21:45:25.084Z,-1.31
2023-01-27T21:47:52.323Z,-1.31
2023-01-27T21:50:20.837Z,-1.31
2023-01-27T21:52:52.122Z,-1.28
2023-01-27T21:55:23.905Z,-1.29
2023-01-27T21:57:52.388Z,-1.27
2023-01-27T22:00:20.532Z,-1.30
2023-01-27T22:02:55.426Z,-1.28
2023-01-27T22:05:27.307Z,-1.29
2023-01-27T22:07:54.864Z,-1.25
2023-01-27T22:10:24.025Z,-1.25
2023-01-27T22:12:52.064Z,-1.24
2023-01-27T22:15:19.929Z,-1.25
2023-01-27T22:17:47.311Z,-1.25
2023-01-27T22:20:15.688Z,-1.22
2023-01-27T22:22:43.676Z,-1.24
2023-01-27T22:25:12.568Z,-1.24
2023-01-27T22:27:43.409Z,-1.22
2023-01-27T22:30:17.584Z,-1.25
2023-01-27T22:32:45.631Z,-1.19
2023-01-27T22:35:17.518Z,-1.19
2023-01-27T22:37:45.530Z,-1.21
2023-01-27T22:40:13.194Z,-1.20
2023-01-27T22:42:40.706Z,-1.21
2023-01-27T22:45:08.403Z,-1.18
2023-01-27T22:47:36.221Z,-1.17
2023-01-27T22:50:03.566Z,-1.20
2023-01-27T22:52:31.409Z,-1.19
2023-01-27T22:54:58.511Z,-1.17
2023-01-27T22:57:35.047Z,-1.15
2023-01-27T23:00:07.838Z,-1.13
2023-01-27T23:02:35.718Z,-1.12
2023-01-27T23:05:02.851Z,-1.14
2023-01-27T23:07:30.253Z,-1.13
2023-01-27T23:09:59.702Z,-1.12
2023-01-27T23:12:26.923Z,-1.13
2023-01-27T23:14:54.070Z,-1.16
2023-01-27T23:17:21.240Z,-1.13
2023-01-27T23:19:48.271Z,-1.12
2023-01-27T23:22:15.426Z,-1.13
2023-01-27T23:24:42.269Z,-1.11
2023-01-27T23:27:09.534Z,-1.14
2023-01-27T23:29:36.455Z,-1.13
2023-01-27T23:32:03.839Z,-1.13
2023-01-27T23:34:30.911Z,-1.12
2023-01-27T23:36:58.157Z,-1.13
2023-01-27T23:39:25.686Z,-1.13
2023-01-27T23:41:52.979Z,-1.16
2023-01-27T23:44:19.831Z,-1.14
2023-01-27T23:46:47.146Z,-1.13
2023-01-27T23:49:14.265Z,-1.12
2023-01-27T23:51:41.568Z,-1.13
2023-01-27T23:54:08.538Z,-1.12
2023-01-27T23:56:35.823Z,-1.14
2023-01-27T23:59:02.969Z,-1.15
